Time;durP1;ratioP1;P1;durP2;ratioP2;P2;SDS_P1;SDS_P2;PMS_P1;PMS_P2;Temp;Humidity;BMP_temperature;BMP_pressure;BME280_temperature;BME280_humidity;BME280_pressure;Samples;Min_cycle;Max_cycle;Signal;HPM_P1;HPM_P2
2021/05/03 00:01:11;;;;;;;7.33;6.40;;;5.90;99.90;;;;;;5050974;28;20201;-74
2021/05/03 00:03:36;;;;;;;6.27;5.70;;;5.80;99.90;;;;;;5050913;28;20196;-74
2021/05/03 00:06:02;;;;;;;5.47;4.97;;;5.70;99.90;;;;;;5050869;28;20183;-73
2021/05/03 00:08:28;;;;;;;7.70;6.30;;;5.60;99.90;;;;;;5050582;28;20195;-73
2021/05/03 00:10:54;;;;;;;7.00;5.17;;;5.50;99.90;;;;;;5050933;28;20211;-74
2021/05/03 00:13:20;;;;;;;6.73;6.07;;;5.40;99.90;;;;;;5032774;28;20237;-74
2021/05/03 00:15:46;;;;;;;5.50;4.97;;;5.30;99.90;;;;;;5050761;28;20853;-74
2021/05/03 00:18:12;;;;;;;6.00;5.40;;;5.20;99.90;;;;;;5032704;28;20573;-74
2021/05/03 00:20:38;;;;;;;6.27;5.23;;;5.10;99.90;;;;;;5050173;28;20842;-74
2021/05/03 00:23:03;;;;;;;6.33;5.73;;;5.00;99.90;;;;;;5050624;28;20215;-74
2021/05/03 00:25:29;;;;;;;6.03;5.40;;;5.00;99.90;;;;;;5050164;28;20510;-73
2021/05/03 00:27:55;;;;;;;6.70;5.17;;;4.90;99.90;;;;;;5050705;28;20241;-73
2021/05/03 00:30:21;;;;;;;6.87;5.57;;;4.90;99.90;;;;;;5050504;28;20698;-73
2021/05/03 00:32:46;;;;;;;9.73;5.20;;;4.80;99.90;;;;;;5050650;28;20195;-73
2021/05/03 00:35:13;;;;;;;8.80;5.63;;;4.70;99.90;;;;;;5050672;28;20885;-73
2021/05/03 00:37:39;;;;;;;5.30;4.80;;;4.60;99.90;;;;;;5046248;28;20186;-73
2021/05/03 00:40:06;;;;;;;6.03;5.10;;;4.50;99.90;;;;;;5048560;28;20831;-74
2021/05/03 00:42:32;;;;;;;5.27;4.70;;;4.50;99.90;;;;;;5048814;28;20475;-73
2021/05/03 00:45:03;;;;;;;7.50;5.60;;;4.40;99.90;;;;;;5047613;28;20405;-73
2021/05/03 00:47:29;;;;;;;5.50;5.00;;;4.40;99.90;;;;;;5049083;28;20426;-75
2021/05/03 00:49:55;;;;;;;5.83;5.23;;;4.30;99.90;;;;;;5050713;28;21119;-72
2021/05/03 00:52:20;;;;;;;6.93;5.57;;;4.40;99.90;;;;;;5030743;28;20448;-73
2021/05/03 00:54:46;;;;;;;9.63;5.87;;;4.40;99.90;;;;;;5050517;28;20190;-73
2021/05/03 00:57:11;;;;;;;6.03;5.40;;;4.40;99.90;;;;;;5048154;28;20190;-73
2021/05/03 00:59:37;;;;;;;6.37;5.20;;;4.30;99.90;;;;;;5050369;28;20193;-72
2021/05/03 01:02:03;;;;;;;7.50;5.80;;;4.20;99.90;;;;;;5046925;28;20247;-73
2021/05/03 01:04:28;;;;;;;7.63;5.60;;;4.20;99.90;;;;;;5050240;28;20171;-74
2021/05/03 01:06:54;;;;;;;6.60;5.00;;;4.10;99.90;;;;;;5046597;28;20197;-73
2021/05/03 01:09:19;;;;;;;5.80;5.03;;;4.10;99.90;;;;;;5029619;28;20184;-73
2021/05/03 01:11:45;;;;;;;7.77;5.87;;;4.10;99.90;;;;;;5031331;28;20230;-73
2021/05/03 01:14:11;;;;;;;5.30;4.77;;;4.00;99.90;;;;;;5045341;28;20214;-73
2021/05/03 01:16:36;;;;;;;5.40;4.90;;;4.00;99.90;;;;;;5047446;28;20220;-73
2021/05/03 01:19:02;;;;;;;7.10;5.13;;;4.00;99.90;;;;;;5049590;28;20663;-73
2021/05/03 01:21:29;;;;;;;6.43;5.17;;;3.90;99.90;;;;;;5049461;28;20974;-72
2021/05/03 01:23:54;;;;;;;7.13;5.03;;;3.80;99.90;;;;;;5047727;28;20443;-73
2021/05/03 01:26:21;;;;;;;5.67;4.80;;;3.80;99.90;;;;;;5049791;28;20503;-73
2021/05/03 01:28:47;;;;;;;4.90;4.50;;;3.80;99.90;;;;;;5049524;28;20707;-73
2021/05/03 01:31:14;;;;;;;14.23;6.17;;;3.80;99.90;;;;;;5052576;28;20428;-73
2021/05/03 01:33:40;;;;;;;7.93;5.10;;;3.70;99.90;;;;;;5029987;28;20498;-73
2021/05/03 01:36:06;;;;;;;6.93;6.23;;;3.70;99.90;;;;;;5053729;28;20924;-73
2021/05/03 01:38:31;;;;;;;9.57;5.10;;;3.70;99.90;;;;;;5051294;28;20191;-73
2021/05/03 01:40:57;;;;;;;4.80;4.30;;;3.70;99.90;;;;;;5035892;28;20462;-73
2021/05/03 01:43:26;;;;;;;4.63;4.33;;;3.60;99.90;;;;;;5052599;28;20638;-72
2021/05/03 01:45:53;;;;;;;6.67;4.70;;;3.60;99.90;;;;;;5049738;28;20329;-73
2021/05/03 01:48:25;;;;;;;8.43;5.33;;;3.60;99.90;;;;;;5051410;28;20878;-74
2021/05/03 01:50:52;;;;;;;5.13;4.73;;;3.50;99.90;;;;;;5053722;28;20436;-73
2021/05/03 01:53:18;;;;;;;5.77;4.90;;;3.50;99.90;;;;;;5050358;28;20440;-73
2021/05/03 01:55:50;;;;;;;7.60;5.20;;;3.50;99.90;;;;;;5051257;28;20938;-73
2021/05/03 01:58:16;;;;;;;6.00;5.40;;;3.50;99.90;;;;;;5053053;28;20853;-74
2021/05/03 02:00:41;;;;;;;6.13;5.20;;;3.50;99.90;;;;;;5051217;28;20488;-73
2021/05/03 02:03:16;;;;;;;8.30;5.17;;;3.50;99.90;;;;;;5053273;28;20208;-73
2021/05/03 02:05:42;;;;;;;6.47;5.70;;;3.60;99.90;;;;;;5046083;28;20182;-73
2021/05/03 02:08:07;;;;;;;7.80;5.43;;;3.60;99.90;;;;;;5050918;28;20864;-73
2021/05/03 02:10:33;;;;;;;6.53;5.80;;;3.60;99.90;;;;;;5050334;28;20766;-73
2021/05/03 02:13:00;;;;;;;6.87;6.27;;;3.60;99.90;;;;;;5050898;28;20187;-73
2021/05/03 02:15:28;;;;;;;9.63;5.50;;;3.60;99.90;;;;;;5048543;28;20500;-72
2021/05/03 02:17:54;;;;;;;7.90;6.23;;;3.60;99.90;;;;;;5053022;28;20420;-73
2021/05/03 02:20:20;;;;;;;10.70;6.40;;;3.60;99.90;;;;;;5051377;28;20435;-72
2021/05/03 02:22:46;;;;;;;10.47;6.23;;;3.60;99.90;;;;;;5017507;28;20628;-72
2021/05/03 02:25:12;;;;;;;7.43;5.80;;;3.50;99.90;;;;;;5050950;28;20529;-73
2021/05/03 02:27:39;;;;;;;7.23;5.57;;;3.50;99.90;;;;;;5051039;28;20180;-73
2021/05/03 02:30:05;;;;;;;6.53;5.83;;;3.50;99.90;;;;;;5052812;28;20444;-72
2021/05/03 02:32:35;;;;;;;6.07;4.87;;;3.40;99.90;;;;;;5051427;28;20519;-72
2021/05/03 02:35:08;;;;;;;7.97;6.13;;;3.40;99.90;;;;;;5052808;28;20512;-73
2021/05/03 02:37:34;;;;;;;6.40;5.50;;;3.30;99.90;;;;;;5047929;28;20477;-74
2021/05/03 02:40:00;;;;;;;6.83;6.20;;;3.20;99.90;;;;;;5052481;28;20456;-73
2021/05/03 02:42:26;;;;;;;11.20;6.50;;;3.20;99.90;;;;;;5048212;28;21004;-72
2021/05/03 02:44:52;;;;;;;7.53;6.67;;;3.10;99.90;;;;;;5052637;28;20262;-73
2021/05/03 02:47:17;;;;;;;7.20;5.93;;;3.00;99.90;;;;;;5049135;28;20186;-73
2021/05/03 02:49:43;;;;;;;7.03;6.40;;;3.00;99.90;;;;;;5052345;28;20428;-72
2021/05/03 02:52:08;;;;;;;7.70;6.17;;;3.00;99.90;;;;;;5050241;28;20205;-73
2021/05/03 02:54:34;;;;;;;10.97;7.13;;;3.00;99.90;;;;;;5052252;28;20206;-73
2021/05/03 02:56:59;;;;;;;8.80;7.40;;;2.90;99.90;;;;;;5051199;28;20187;-73
2021/05/03 02:59:25;;;;;;;8.50;5.77;;;2.90;99.90;;;;;;5049849;28;20179;-74
2021/05/03 03:01:51;;;;;;;8.90;7.00;;;2.90;99.90;;;;;;5052145;28;20267;-73
2021/05/03 03:04:17;;;;;;;13.83;6.50;;;2.90;99.90;;;;;;5049833;28;20206;-73
2021/05/03 03:06:43;;;;;;;6.63;5.93;;;2.90;99.90;;;;;;5052006;28;20170;-73
2021/05/03 03:09:08;;;;;;;6.37;5.77;;;2.90;99.90;;;;;;5030068;28;20744;-73
2021/05/03 03:11:34;;;;;;;7.50;6.63;;;2.80;99.90;;;;;;5051748;28;20452;-75
2021/05/03 03:14:02;;;;;;;8.90;6.90;;;2.80;99.90;;;;;;5048207;28;20177;-73
2021/05/03 03:16:28;;;;;;;9.60;7.13;;;2.80;99.90;;;;;;5051330;28;20213;-72
2021/05/03 03:18:55;;;;;;;10.53;5.70;;;2.80;99.90;;;;;;5049570;28;20460;-74
2021/05/03 03:21:22;;;;;;;9.40;7.80;;;2.80;99.90;;;;;;5050037;28;20789;-74
2021/05/03 03:23:47;;;;;;;9.77;5.83;;;2.80;99.90;;;;;;5031643;28;20473;-73
2021/05/03 03:26:13;;;;;;;10.63;7.33;;;2.80;99.90;;;;;;5051566;28;20979;-74
2021/05/03 03:28:39;;;;;;;9.63;8.03;;;2.80;99.90;;;;;;5049744;28;20214;-74
2021/05/03 03:31:04;;;;;;;12.87;7.87;;;2.80;99.90;;;;;;5049454;28;20276;-72
2021/05/03 03:33:30;;;;;;;7.73;6.33;;;2.80;99.90;;;;;;5033460;28;20178;-73
2021/05/03 03:35:56;;;;;;;8.10;7.30;;;2.80;99.90;;;;;;5048645;28;20305;-72
2021/05/03 03:38:22;;;;;;;9.40;8.27;;;2.80;99.90;;;;;;5049186;28;20272;-73
2021/05/03 03:40:47;;;;;;;9.33;7.40;;;2.90;99.90;;;;;;5047408;28;20603;-73
2021/05/03 03:43:13;;;;;;;11.93;8.47;;;2.90;99.90;;;;;;5051474;28;20201;-73
2021/05/03 03:45:39;;;;;;;9.53;7.80;;;2.90;99.90;;;;;;5048730;28;20220;-73
2021/05/03 03:48:06;;;;;;;8.53;6.67;;;2.90;99.90;;;;;;5051228;28;20189;-75
2021/05/03 03:50:31;;;;;;;9.03;6.90;;;2.90;99.90;;;;;;5047398;28;20199;-73
2021/05/03 03:52:57;;;;;;;10.83;7.80;;;2.80;99.90;;;;;;5047777;28;20977;-74
2021/05/03 03:55:23;;;;;;;7.70;6.70;;;2.90;99.90;;;;;;5048489;28;20188;-72
2021/05/03 03:57:49;;;;;;;8.73;7.57;;;2.90;99.90;;;;;;5051055;28;20954;-74
2021/05/03 04:00:15;;;;;;;7.63;6.90;;;2.90;99.90;;;;;;5049029;28;20282;-73
2021/05/03 04:02:40;;;;;;;11.03;8.07;;;2.80;99.90;;;;;;5049717;28;20309;-73
2021/05/03 04:26:11;;;;;;;12.50;8.30;;;2.80;99.90;;;;;;5046740;28;20412;-74
2021/05/03 04:28:37;;;;;;;10.97;8.67;;;2.80;99.90;;;;;;5048211;28;20433;-74
2021/05/03 04:31:02;;;;;;;8.93;7.63;;;2.80;99.90;;;;;;5050838;28;20793;-73
2021/05/03 04:33:28;;;;;;;10.60;7.97;;;2.80;99.90;;;;;;5045974;28;20246;-74
2021/05/03 04:35:53;;;;;;;9.43;8.33;;;2.80;99.90;;;;;;5050597;28;20186;-76
2021/05/03 04:38:19;;;;;;;10.43;7.87;;;2.90;99.90;;;;;;5048416;28;20269;-74
2021/05/03 04:40:46;;;;;;;18.03;9.60;;;2.90;99.90;;;;;;5050517;28;20347;-74
2021/05/03 04:43:13;;;;;;;12.10;8.93;;;2.90;99.90;;;;;;5049467;28;20205;-74
2021/05/03 04:45:39;;;;;;;12.43;7.90;;;3.00;99.90;;;;;;5048363;28;20490;-74
2021/05/03 04:48:05;;;;;;;12.10;8.77;;;3.00;99.90;;;;;;5029722;28;20480;-73
2021/05/03 04:50:31;;;;;;;12.77;8.87;;;3.00;99.90;;;;;;5031414;28;20205;-74
2021/05/03 04:52:56;;;;;;;15.00;9.30;;;3.10;99.90;;;;;;5048419;28;20443;-72
2021/05/03 04:55:22;;;;;;;13.67;8.47;;;3.10;99.90;;;;;;5032579;28;20855;-74
2021/05/03 04:57:47;;;;;;;17.10;8.00;;;3.20;99.90;;;;;;5048791;28;20257;-74
2021/05/03 05:00:14;;;;;;;10.93;8.40;;;3.20;99.90;;;;;;5047358;28;20213;-76
2021/05/03 05:02:40;;;;;;;13.53;8.33;;;3.20;99.90;;;;;;5028442;28;20201;-74
2021/05/03 05:05:10;;;;;;;9.43;7.50;;;3.30;99.90;;;;;;5045810;28;20440;-75
2021/05/03 05:07:35;;;;;;;11.30;7.80;;;3.40;99.90;;;;;;5052219;28;20624;-74
2021/05/03 05:10:01;;;;;;;12.60;7.87;;;3.60;99.90;;;;;;5052805;28;20418;-74
2021/05/03 05:12:26;;;;;;;13.87;8.80;;;3.60;99.90;;;;;;5052161;28;20178;-74
2021/05/03 05:14:52;;;;;;;12.63;7.03;;;3.90;99.90;;;;;;5045446;28;20192;-75
2021/05/03 05:17:17;;;;;;;10.43;8.10;;;4.90;99.90;;;;;;5054327;28;20638;-74
2021/05/03 05:19:43;;;;;;;14.93;6.80;;;6.80;99.90;;;;;;5034745;28;20605;-75
2021/05/03 05:22:11;;;;;;;10.70;7.40;;;9.10;99.90;;;;;;5053828;28;20208;-74
2021/05/03 05:24:38;;;;;;;12.70;6.87;;;11.00;99.90;;;;;;5049846;28;20174;-74
2021/05/03 05:27:04;;;;;;;11.20;6.30;;;12.10;99.90;;;;;;5051145;28;20978;-73
2021/05/03 05:29:30;;;;;;;6.60;5.43;;;13.40;99.90;;;;;;5049545;28;20450;-73
2021/05/03 05:31:55;;;;;;;9.83;7.07;;;13.10;99.90;;;;;;5053133;28;20926;-72
2021/05/03 05:34:21;;;;;;;6.90;6.00;;;12.00;99.90;;;;;;5036365;28;20177;-73
2021/05/03 05:36:47;;;;;;;8.53;7.63;;;10.80;99.90;;;;;;5053847;28;20211;-73
2021/05/03 05:39:13;;;;;;;10.37;7.97;;;9.90;99.90;;;;;;5053915;28;20212;-72
2021/05/03 05:41:39;;;;;;;9.17;7.20;;;8.80;99.90;;;;;;5053657;28;20220;-72
2021/05/03 05:44:06;;;;;;;8.03;7.30;;;8.20;99.90;;;;;;5053886;28;20331;-73
2021/05/03 05:46:33;;;;;;;7.93;6.70;;;9.00;99.90;;;;;;5053717;28;20431;-73
2021/05/03 05:48:58;;;;;;;8.83;7.93;;;10.80;99.90;;;;;;5053565;28;20943;-73
2021/05/03 05:51:25;;;;;;;8.50;6.80;;;12.50;99.90;;;;;;5053781;28;20442;-73
2021/05/03 05:53:50;;;;;;;8.63;7.17;;;13.10;99.90;;;;;;5053790;28;20268;-75
2021/05/03 05:56:16;;;;;;;10.80;7.10;;;14.30;99.90;;;;;;5053798;28;20517;-73
2021/05/03 05:58:41;;;;;;;7.97;7.17;;;15.40;99.90;;;;;;5045821;28;20207;-72
2021/05/03 06:01:07;;;;;;;6.20;5.60;;;15.80;99.90;;;;;;5053720;28;20208;-75
2021/05/03 06:03:32;;;;;;;6.23;5.70;;;16.30;99.90;;;;;;5053447;28;20227;-74
2021/05/03 06:05:58;;;;;;;6.43;5.83;;;16.30;99.90;;;;;;5052884;28;20174;-75
2021/05/03 06:08:24;;;;;;;6.87;6.20;;;16.50;99.90;;;;;;5053090;28;20201;-75
2021/05/03 06:10:50;;;;;;;7.00;6.23;;;16.10;99.90;;;;;;5053020;28;20194;-75
2021/05/03 06:13:16;;;;;;;6.97;6.27;;;15.50;99.90;;;;;;5053228;28;20412;-76
2021/05/03 06:15:41;;;;;;;7.13;6.43;;;15.00;99.90;;;;;;5048682;28;20835;-75
2021/05/03 06:18:07;;;;;;;8.20;6.20;;;14.40;99.90;;;;;;5052629;28;20707;-75
2021/05/03 06:20:34;;;;;;;7.70;7.00;;;13.90;99.90;;;;;;5052972;28;20718;-75
2021/05/03 06:23:04;;;;;;;11.97;6.73;;;13.50;99.90;;;;;;5052501;28;20469;-75
2021/05/03 06:25:30;;;;;;;7.30;6.20;;;13.40;99.90;;;;;;5052355;28;20916;-75
2021/05/03 06:27:57;;;;;;;6.57;5.80;;;13.00;99.90;;;;;;5052439;28;20419;-75
2021/05/03 06:30:23;;;;;;;7.40;6.70;;;13.00;99.90;;;;;;5052637;28;20911;-75
2021/05/03 06:32:53;;;;;;;24.30;7.63;;;13.10;99.90;;;;;;5052594;28;20419;-76
2021/05/03 06:35:19;;;;;;;6.90;5.80;;;13.40;99.90;;;;;;5052590;28;20913;-75
2021/05/03 06:37:45;;;;;;;6.50;5.90;;;13.50;99.90;;;;;;5052584;28;20447;-75
2021/05/03 06:40:12;;;;;;;8.80;6.80;;;14.10;99.90;;;;;;5052252;28;21065;-75
2021/05/03 06:42:38;;;;;;;7.00;6.27;;;14.20;99.90;;;;;;5034812;28;20263;-76
2021/05/03 06:45:04;;;;;;;7.70;6.90;;;14.20;99.90;;;;;;5052769;28;20424;-76
2021/05/03 06:47:30;;;;;;;8.33;6.73;;;14.50;99.90;;;;;;5052362;28;20443;-75
2021/05/03 06:49:56;;;;;;;6.40;5.80;;;14.60;99.90;;;;;;5049937;28;20506;-76
2021/05/03 06:52:22;;;;;;;8.70;5.90;;;14.40;99.90;;;;;;5052460;28;20448;-76
2021/05/03 06:54:48;;;;;;;6.73;5.40;;;14.20;99.90;;;;;;5052169;28;20192;-76
2021/05/03 06:57:14;;;;;;;6.50;5.70;;;14.40;99.90;;;;;;5031914;28;20742;-75
2021/05/03 06:59:39;;;;;;;11.60;5.90;;;14.50;99.90;;;;;;5031099;28;20549;-74
2021/05/03 07:02:05;;;;;;;5.43;4.70;;;14.40;99.90;;;;;;5051833;28;20201;-76
2021/05/03 07:04:31;;;;;;;6.57;5.73;;;14.50;99.90;;;;;;5052153;28;20166;-76
2021/05/03 07:06:56;;;;;;;8.03;6.40;;;14.80;99.90;;;;;;5051612;28;20447;-73
2021/05/03 07:09:22;;;;;;;9.53;5.27;;;14.90;99.90;;;;;;5051808;28;20230;-74
2021/05/03 07:11:50;;;;;;;6.20;5.20;;;15.40;99.90;;;;;;5051466;28;20203;-73
2021/05/03 07:14:16;;;;;;;7.10;5.83;;;15.60;99.90;;;;;;5051929;28;20174;-73
2021/05/03 07:16:41;;;;;;;6.60;6.00;;;15.50;99.90;;;;;;5047514;28;20775;-74
2021/05/03 07:19:07;;;;;;;7.00;6.30;;;15.40;99.90;;;;;;5051618;28;20196;-74
2021/05/03 07:21:34;;;;;;;6.03;5.53;;;15.60;99.90;;;;;;5050826;28;20753;-73
2021/05/03 07:24:00;;;;;;;7.50;5.80;;;15.10;99.90;;;;;;5033707;28;20213;-73
2021/05/03 07:26:27;;;;;;;7.67;6.30;;;15.30;99.90;;;;;;5051521;28;20480;-73
2021/05/03 07:28:52;;;;;;;7.93;5.83;;;15.60;99.90;;;;;;5051100;28;20672;-74
2021/05/03 07:31:18;;;;;;;5.90;5.30;;;16.00;99.90;;;;;;5033009;28;20525;-74
2021/05/03 07:33:43;;;;;;;6.30;5.80;;;16.20;99.90;;;;;;5050772;28;20430;-73
2021/05/03 07:36:09;;;;;;;6.57;5.97;;;16.10;99.90;;;;;;5050908;28;20188;-74
2021/05/03 07:38:34;;;;;;;7.27;6.23;;;16.10;99.90;;;;;;5051515;28;20227;-74
2021/05/03 07:41:00;;;;;;;8.60;6.00;;;16.10;99.90;;;;;;5051192;28;20209;-75
2021/05/03 07:43:26;;;;;;;7.70;5.40;;;16.10;99.90;;;;;;5051457;28;20208;-75
2021/05/03 07:45:51;;;;;;;9.83;6.63;;;15.80;99.90;;;;;;5051028;28;20213;-76
2021/05/03 07:48:17;;;;;;;7.10;5.90;;;16.20;99.90;;;;;;5051333;28;20201;-76
2021/05/03 07:50:43;;;;;;;6.70;5.93;;;16.50;99.90;;;;;;5051429;28;20293;-76
2021/05/03 07:53:08;;;;;;;7.67;5.47;;;16.80;99.90;;;;;;5033224;28;20184;-76
2021/05/03 07:55:34;;;;;;;9.50;5.57;;;16.90;99.90;;;;;;5050916;28;20876;-76
2021/05/03 07:58:00;;;;;;;6.80;5.80;;;17.20;99.90;;;;;;5050785;28;20203;-75
2021/05/03 08:00:26;;;;;;;6.50;5.90;;;17.50;99.90;;;;;;5051009;28;20205;-75
2021/05/03 08:02:51;;;;;;;8.43;6.07;;;18.00;99.90;;;;;;5051000;28;20901;-75
2021/05/03 08:05:17;;;;;;;9.30;6.20;;;18.10;99.90;;;;;;5051227;28;20178;-76
2021/05/03 08:07:43;;;;;;;7.40;6.47;;;17.70;99.90;;;;;;5050878;28;20652;-74
2021/05/03 08:10:09;;;;;;;10.20;7.40;;;17.70;99.90;;;;;;5050719;28;20969;-75
2021/05/03 08:12:34;;;;;;;8.67;7.30;;;17.20;99.90;;;;;;5051027;28;20192;-76
2021/05/03 08:15:09;;;;;;;10.17;7.63;;;16.50;99.90;;;;;;5050760;28;20223;-75
2021/05/03 08:17:35;;;;;;;7.70;6.90;;;15.90;99.90;;;;;;5050798;28;20758;-75
2021/05/03 08:20:01;;;;;;;9.53;7.53;;;15.70;99.90;;;;;;5032619;28;20419;-75
2021/05/03 08:22:26;;;;;;;10.27;8.13;;;15.10;99.90;;;;;;5050895;28;20455;-76
2021/05/03 08:24:52;;;;;;;7.80;7.00;;;14.70;99.90;;;;;;5050555;28;20185;-76
2021/05/03 08:27:17;;;;;;;9.00;7.70;;;14.00;99.90;;;;;;5050564;28;20549;-76
2021/05/03 08:29:43;;;;;;;8.87;7.93;;;13.70;99.90;;;;;;5050844;28;20656;-75
2021/05/03 08:32:09;;;;;;;8.30;7.10;;;13.50;99.90;;;;;;5050479;28;20255;-75
2021/05/03 08:34:35;;;;;;;10.03;7.30;;;13.50;99.90;;;;;;5049769;28;20260;-75
2021/05/03 08:37:00;;;;;;;8.97;6.60;;;13.30;99.90;;;;;;5050023;28;20431;-76
2021/05/03 08:39:27;;;;;;;8.80;7.37;;;13.00;99.90;;;;;;5050024;28;20194;-73
2021/05/03 08:41:57;;;;;;;8.30;5.83;;;13.00;99.90;;;;;;5051398;28;20209;-74
2021/05/03 08:44:25;;;;;;;7.67;6.67;;;12.90;99.90;;;;;;5051674;28;20424;-73
2021/05/03 08:46:51;;;;;;;7.67;6.50;;;12.90;99.90;;;;;;5050857;28;20415;-75
2021/05/03 08:49:55;;;;;;;10.17;6.23;;;13.00;99.90;;;;;;5051234;28;20434;-73
2021/05/03 08:52:14;;;;;;;7.00;6.10;;;13.00;99.90;;;;;;5039456;28;20282;-74
2021/05/03 08:54:44;;;;;;;6.83;6.13;;;13.00;99.90;;;;;;5051159;28;20423;-74
2021/05/03 08:57:12;;;;;;;5.60;5.10;;;13.10;99.90;;;;;;5050939;28;20442;-75
2021/05/03 08:59:40;;;;;;;9.53;6.67;;;13.30;99.90;;;;;;5050801;28;20507;-74
2021/05/03 09:02:07;;;;;;;7.80;7.00;;;13.50;99.90;;;;;;5032019;28;20467;-73
2021/05/03 09:04:33;;;;;;;7.80;7.10;;;13.50;99.90;;;;;;5050659;28;20427;-74
2021/05/03 09:07:05;;;;;;;8.00;7.30;;;13.30;99.90;;;;;;5049778;28;20832;-74
2021/05/03 09:09:40;;;;;;;9.80;6.60;;;13.40;99.90;;;;;;5050649;28;20436;-73
2021/05/03 09:12:12;;;;;;;7.53;6.27;;;13.20;99.90;;;;;;5050557;28;20459;-73
2021/05/03 09:14:59;;;;;;;7.33;6.43;;;13.20;99.90;;;;;;5050765;28;20477;-74
2021/05/03 09:17:37;;;;;;;7.77;7.00;;;13.20;99.90;;;;;;5048255;28;20970;-73
2021/05/03 09:20:13;;;;;;;8.93;5.93;;;13.50;99.90;;;;;;5050363;28;20764;-73
2021/05/03 09:22:47;;;;;;;7.40;6.70;;;13.80;99.90;;;;;;5050611;28;20561;-73
2021/05/03 09:25:26;;;;;;;7.27;6.53;;;13.90;99.90;;;;;;5050896;28;20411;-74
2021/05/03 09:28:20;;;;;;;16.87;8.07;;;14.30;99.90;;;;;;5032548;28;20437;-74
2021/05/03 09:30:57;;;;;;;14.03;6.30;;;14.30;99.90;;;;;;5046569;28;20446;-76
2021/05/03 09:33:23;;;;;;;6.80;5.30;;;14.60;99.90;;;;;;5040497;28;20465;-73
2021/05/03 09:35:52;;;;;;;8.37;7.07;;;14.90;99.90;;;;;;5047994;28;20467;-73
2021/05/03 09:38:29;;;;;;;7.83;6.47;;;14.60;99.90;;;;;;5048967;28;20607;-74
2021/05/03 09:41:17;;;;;;;9.30;7.97;;;14.50;99.90;;;;;;5056978;28;20491;-73
2021/05/03 09:43:49;;;;;;;7.90;7.10;;;15.10;99.90;;;;;;5029514;28;20462;-72
2021/05/03 09:46:36;;;;;;;8.77;6.90;;;15.70;99.90;;;;;;5049456;28;20459;-74
2021/05/03 09:49:09;;;;;;;7.17;6.13;;;15.90;99.90;;;;;;5050346;28;20406;-73
2021/05/03 09:51:40;;;;;;;7.60;5.40;;;15.90;99.90;;;;;;5052797;28;20439;-75
2021/05/03 09:54:12;;;;;;;7.07;6.37;;;15.40;99.90;;;;;;5054038;28;20418;-73
2021/05/03 09:56:51;;;;;;;6.80;6.10;;;15.10;99.90;;;;;;5049586;28;20499;-74
2021/05/03 09:59:49;;;;;;;6.43;5.83;;;14.80;99.90;;;;;;5053561;28;20910;-74
2021/05/03 10:02:25;;;;;;;6.57;5.83;;;14.50;99.90;;;;;;5051701;28;20482;-73
2021/05/03 10:05:06;;;;;;;5.67;5.13;;;14.10;99.90;;;;;;5051616;28;20420;-74
2021/05/03 10:07:34;;;;;;;6.17;5.50;;;13.80;99.90;;;;;;5055525;28;20411;-75
2021/05/03 10:10:07;;;;;;;6.40;5.83;;;13.90;99.90;;;;;;5057277;28;20930;-74
2021/05/03 10:12:33;;;;;;;6.90;6.20;;;13.90;99.90;;;;;;5053605;28;21005;-74
2021/05/03 10:15:02;;;;;;;7.23;5.30;;;13.80;99.90;;;;;;5055798;28;20429;-74
2021/05/03 10:17:30;;;;;;;6.97;4.60;;;14.40;99.90;;;;;;5053526;28;20427;-73
2021/05/03 10:19:59;;;;;;;4.23;3.93;;;15.10;99.90;;;;;;5059048;28;20497;-74
2021/05/03 10:22:25;;;;;;;5.97;5.47;;;15.20;99.90;;;;;;5056979;28;20462;-73
2021/05/03 10:25:18;;;;;;;8.30;4.67;;;15.00;99.90;;;;;;5033865;28;20429;-75
2021/05/03 10:27:46;;;;;;;5.07;4.57;;;14.80;99.90;;;;;;5057425;28;20431;-74
2021/05/03 10:30:26;;;;;;;4.60;4.20;;;14.30;99.90;;;;;;5053327;28;20440;-73
2021/05/03 10:33:06;;;;;;;5.63;4.40;;;14.30;99.90;;;;;;5057037;28;20419;-76
2021/05/03 10:35:36;;;;;;;5.23;4.73;;;14.10;99.90;;;;;;5058721;28;20415;-74
2021/05/03 10:38:03;;;;;;;7.57;4.33;;;13.80;99.90;;;;;;5058834;28;20439;-75
2021/05/03 10:40:34;;;;;;;4.47;4.07;;;13.70;99.90;;;;;;5038857;28;21020;-74
2021/05/03 10:43:03;;;;;;;4.97;4.57;;;13.90;99.90;;;;;;5053264;28;20593;-76
2021/05/03 10:49:03;;;;;;;4.30;3.90;;;14.40;99.90;;;;;;5056063;28;20450;-74
2021/05/03 10:51:31;;;;;;;4.30;3.90;;;14.30;99.90;;;;;;4972001;28;20467;-73
2021/05/03 10:54:20;;;;;;;3.73;3.40;;;15.00;99.90;;;;;;5032951;28;20887;-74
2021/05/03 10:56:46;;;;;;;5.43;4.30;;;16.40;99.90;;;;;;5049428;28;20446;-74
2021/05/03 10:59:13;;;;;;;4.47;3.57;;;16.90;99.90;;;;;;5052634;28;20463;-74
2021/05/03 11:01:54;;;;;;;4.47;3.50;;;17.00;99.90;;;;;;5026886;28;20251;-73
2021/05/03 11:04:28;;;;;;;5.27;4.50;;;16.60;99.30;;;;;;5051797;28;20415;-74
2021/05/03 11:06:57;;;;;;;4.00;3.67;;;16.00;99.90;;;;;;5051771;28;20411;-74
2021/05/03 11:09:32;;;;;;;4.10;3.70;;;15.50;99.30;;;;;;5052622;28;20420;-74
2021/05/03 11:12:12;;;;;;;5.03;4.40;;;15.00;99.30;;;;;;5052004;28;20813;-74
2021/05/03 11:14:39;;;;;;;3.60;3.17;;;14.80;99.80;;;;;;5052380;28;20964;-74
2021/05/03 11:17:14;;;;;;;4.30;3.60;;;14.70;99.20;;;;;;5051692;28;20414;-73
2021/05/03 11:19:57;;;;;;;4.43;3.50;;;14.40;98.90;;;;;;5048375;28;20416;-73
2021/05/03 11:22:52;;;;;;;4.00;3.70;;;14.00;98.50;;;;;;5052152;28;20555;-73
2021/05/03 11:25:26;;;;;;;3.50;3.20;;;13.90;99.20;;;;;;5037502;28;20436;-73
2021/05/03 11:30:36;;;;;;;3.20;2.90;;;13.60;98.80;;;;;;5052067;28;20443;-73
2021/05/03 11:33:15;;;;;;;3.23;3.00;;;14.10;99.70;;;;;;5051844;28;20430;-74
2021/05/03 11:38:38;;;;;;;3.47;3.20;;;14.50;98.70;;;;;;5051729;28;20423;-74
2021/05/03 11:41:24;;;;;;;3.40;2.70;;;14.90;98.80;;;;;;5051346;28;20247;-74
2021/05/03 11:43:55;;;;;;;8.37;3.00;;;14.80;97.00;;;;;;5045278;28;20494;-74
2021/05/03 11:46:33;;;;;;;3.03;2.83;;;15.00;97.80;;;;;;5051373;28;20429;-73
2021/05/03 11:49:09;;;;;;;2.60;2.40;;;14.90;97.70;;;;;;5051097;28;20412;-74
2021/05/03 11:51:49;;;;;;;2.97;2.77;;;15.30;97.90;;;;;;5051251;28;20441;-75
2021/05/03 11:54:37;;;;;;;2.73;2.53;;;15.50;98.50;;;;;;5028595;28;20876;-75
2021/05/03 11:57:16;;;;;;;2.77;2.57;;;15.80;97.60;;;;;;5050277;28;20516;-73
2021/05/03 11:59:42;;;;;;;2.80;2.60;;;15.90;95.60;;;;;;5047703;28;20423;-73
2021/05/03 12:02:15;;;;;;;8.53;2.40;;;15.80;96.80;;;;;;5050690;28;21047;-74
2021/05/03 12:04:44;;;;;;;2.83;2.53;;;15.90;97.00;;;;;;5047294;28;20422;-74
2021/05/03 12:07:22;;;;;;;6.20;2.67;;;15.90;95.80;;;;;;5051776;28;21041;-73
2021/05/03 12:10:11;;;;;;;2.57;2.27;;;15.70;96.00;;;;;;5048021;28;20406;-74
2021/05/03 12:12:43;;;;;;;2.53;2.43;;;16.20;97.40;;;;;;5050978;28;20534;-74
2021/05/03 12:15:22;;;;;;;2.53;2.33;;;16.10;95.00;;;;;;5041680;28;20447;-74
2021/05/03 12:17:48;;;;;;;2.47;2.07;;;16.00;95.60;;;;;;5049100;28;20419;-74
2021/05/03 12:20:17;;;;;;;2.60;2.40;;;16.00;95.00;;;;;;5044929;28;20468;-76
2021/05/03 12:22:56;;;;;;;2.07;1.80;;;15.90;96.30;;;;;;5051227;28;20998;-75
2021/05/03 12:25:21;;;;;;;2.77;2.50;;;15.80;96.90;;;;;;5049175;28;20483;-74
2021/05/03 12:27:47;;;;;;;2.27;1.90;;;15.70;94.00;;;;;;5047892;28;20419;-75
2021/05/03 12:30:13;;;;;;;1.90;1.80;;;15.60;94.70;;;;;;5047029;28;20339;-74
2021/05/03 12:32:41;;;;;;;3.23;2.30;;;15.50;96.00;;;;;;5047289;28;20188;-74
2021/05/03 12:35:10;;;;;;;2.30;2.20;;;15.60;95.80;;;;;;5030355;28;20428;-68
2021/05/03 12:37:37;;;;;;;2.67;2.57;;;15.50;95.90;;;;;;5047981;28;20208;-67
2021/05/03 12:40:10;;;;;;;1.90;1.80;;;15.70;96.20;;;;;;5046182;28;20804;-69
2021/05/03 12:42:41;;;;;;;2.80;1.80;;;15.70;96.50;;;;;;5048380;28;20479;-80
2021/05/03 12:45:21;;;;;;;2.60;2.40;;;15.50;96.60;;;;;;5030922;28;20481;-75
2021/05/03 12:56:14;;;;;;;7.30;2.63;;;15.20;97.20;;;;;;5046985;28;20428;-74
2021/05/03 12:59:00;;;;;;;3.43;1.90;;;15.30;96.60;;;;;;5048831;28;20192;-74
2021/05/03 13:01:49;;;;;;;2.70;2.13;;;15.20;95.00;;;;;;5052853;28;20578;-74
2021/05/03 13:05:01;;;;;;;4.07;2.40;;;15.10;96.20;;;;;;5050291;28;20427;-74
2021/05/03 13:10:54;;;;;;;1.70;1.60;;;15.60;95.20;;;;;;5052879;28;20520;-74
2021/05/03 13:30:24;;;;;;;1.80;1.70;;;16.20;91.30;;;;;;5052993;28;20450;-75
2021/05/03 13:32:52;;;;;;;9.53;1.60;;;16.20;90.80;;;;;;5050801;28;20434;-74
2021/05/03 13:35:17;;;;;;;1.70;1.60;;;16.10;92.40;;;;;;5053565;28;20510;-74
2021/05/03 13:37:44;;;;;;;3.03;2.00;;;16.00;92.90;;;;;;5053600;28;20514;-74
2021/05/03 13:40:10;;;;;;;3.20;2.17;;;15.80;91.70;;;;;;5049510;28;20197;-75
2021/05/03 13:42:36;;;;;;;2.80;1.60;;;15.80;93.90;;;;;;5053338;28;20467;-75
2021/05/03 13:45:06;;;;;;;1.33;1.27;;;15.70;91.50;;;;;;5053308;28;20463;-75
2021/05/03 13:47:31;;;;;;;1.57;1.47;;;15.70;92.60;;;;;;5053133;28;20442;-75
2021/05/03 13:49:58;;;;;;;3.90;1.70;;;15.60;92.70;;;;;;5053153;28;20419;-75
2021/05/03 13:52:23;;;;;;;1.43;1.33;;;15.60;92.80;;;;;;5053460;28;20231;-75
2021/05/03 13:54:49;;;;;;;1.60;1.50;;;15.60;92.60;;;;;;5053243;28;20836;-75
2021/05/03 13:57:14;;;;;;;2.40;2.20;;;15.50;93.30;;;;;;5052916;28;20193;-73